Nearby METAR Reports

 

KCMA - Camarillo, California, USA
Distance from station: WSW 4mi, 7km
Updated: Sun, 27-Sep-2020 6:55am PDT
Haze, Overcast
Haze, Overcast
 Wind from ENE
Wind: ENE 7 mph , 11 km/h
Temperature: 68°F , 20°C
Dew Point: 61°F , 16°C
Humidity: 78%
Barometer: 29.87 inHg , 1011.5 hPa
Summary: Haze
Clouds: Overcast
Visibility: 4 miles , 6 km
Cloud details: Overcast 1100 ft
2020/09/27 13:55 KCMA 271355Z AUTO 06006KT 4SM HZ OVC011 20/16 A2987 RMK AO2 SLP124 T02000161
KNTD - Point Mugu Nas, California, USA
Distance from station: SSW 9mi, 15km
Updated: Sun, 27-Sep-2020 6:52am PDT
Mist, Overcast
Mist, Overcast
 Wind from NE
Wind: NE 5 mph , 7 km/h
Temperature: 64°F , 18°C
Dew Point: 61°F , 16°C
Humidity: 88%
Barometer: 29.88 inHg , 1011.9 hPa
Summary: Mist
Clouds: Overcast
Visibility: 6 miles , 10 km
Cloud details: Overcast 1400 ft
2020/09/27 13:52 KNTD 271352Z AUTO 05004KT 6SM BR OVC014 18/16 A2988 RMK AO2 SLP117 T01830161 PWINO $
 
KOXR - Oxnard, California, USA
Distance from station: WSW 10mi, 16km
Updated: Sun, 27-Sep-2020 6:51am PDT
Overcast
Overcast
 Wind from ENE
Wind: ENE 5 mph , 7 km/h
Temperature: 66°F , 19°C
Dew Point: 63°F , 17°C
Humidity: 88%
Barometer: 29.87 inHg , 1011.5 hPa
Clouds: Overcast
Visibility: 7 miles , 11 km
Cloud details: Overcast 1400 ft
2020/09/27 13:51 KOXR 271351Z 06004KT 7SM OVC014 19/17 A2987 RMK AO2 SLP114 T01890167
KVNY - Van Nuys, California, USA
Distance from station: E 31mi, 50km
Updated: Sun, 27-Sep-2020 6:51am PDT
Haze, Overcast
Haze, Overcast
 Wind from calm
Wind: Calm
Temperature: 66°F , 19°C
Dew Point: 61°F , 16°C
Humidity: 83%
Barometer: 29.88 inHg , 1011.9 hPa
Summary: Haze
Clouds: Overcast
Visibility: 4 miles , 6 km
Cloud details: Overcast 700 ft
2020/09/27 13:51 KVNY 271351Z 00000KT 4SM HZ OVC007 19/16 A2988 RMK AO2 SLP111 T01940161
 
KWHP - La / Whiteman, California, USA
Distance from station: E 35mi, 56km
Updated: Sat, 26-Sep-2020 7:50pm PDT
NOT Current
Clear
Clear
 Wind from ESE
Wind: ESE 5 mph , 7 km/h
Temperature: 75°F , 24°C
Dew Point: 61°F , 16°C
Humidity: 61%
Barometer: 29.89 inHg , 1012.2 hPa
Clouds: Clear
Visibility: 10 miles , 16 km
2020/09/27 02:50 KWHP 270250Z 11004KT 10SM SKC 24/16 A2989
KSMO - Santa Monica, California, USA
Distance from station: ESE 36mi, 58km
Updated: Mon, 14-Sep-2020 10:51pm PDT
NOT Current
Mist, Smoke, Clear
Mist, Smoke, Clear
 Wind from calm
Wind: Calm
Temperature: 64°F , 18°C
Dew Point: 61°F , 16°C
Humidity: 88%
Barometer: 30.00 inHg , 1015.9 hPa
Summary: Mist, Smoke
Clouds: Clear
Visibility: 4 miles , 6 km
2020/09/15 05:51 KSMO 150551Z AUTO 00000KT 4SM BR FU CLR 18/16 A3000 RMK AO2 SLP157 T01780156 10233 20178 51018
 
KBUR - Burbank, California, USA
Distance from station: E 38mi, 61km
Updated: Sun, 27-Sep-2020 6:53am PDT
Mist, Overcast
Mist, Overcast
 Wind from calm
Wind: Calm
Temperature: 64°F , 18°C
Dew Point: 61°F , 16°C
Humidity: 88%
Barometer: 29.88 inHg , 1011.9 hPa
Summary: Mist
Clouds: Overcast
Visibility: 4 miles , 6 km
Cloud details: Overcast 800 ft
2020/09/27 13:53 KBUR 271353Z 00000KT 4SM BR OVC008 18/16 A2988 RMK AO2 SLP108 T01830161 $
KSDB - Sandberg, California, USA
Distance from station: NNE 40mi, 64km
Updated: Sun, 27-Sep-2020 6:53am PDT
Clear
Clear
 Wind from NE
Wind: NE 10 mph , 17 km/h
Temperature: 66°F , 19°C
Dew Point: 43°F , 6°C
Humidity: 43%
Barometer: 30.06 inHg , 1017.9 hPa
Clouds: Clear
Visibility: 8 miles , 13 km
2020/09/27 13:53 KSDB 271353Z AUTO 04009KT 8SM CLR 19/06 A3006 RMK AO2 SLP131 T01940061 $
 
KLAX - Los Angeles, California, USA
Distance from station: ESE 42mi, 68km
Updated: Sun, 27-Sep-2020 6:53am PDT
Overcast
Overcast
 Wind from E
Wind: E 6 mph , 9 km/h
Temperature: 66°F , 19°C
Dew Point: 61°F , 16°C
Humidity: 83%
Barometer: 29.88 inHg , 1011.9 hPa
Clouds: Overcast
Visibility: 8 miles , 13 km
Cloud details: Overcast 1300 ft
2020/09/27 13:53 KLAX 271353Z 08005KT 8SM OVC013 19/16 A2988 RMK AO2 SLP115 T01940161
KCQT - Los Angeles, California, USA
Distance from station: ESE 45mi, 73km
Updated: Sun, 27-Sep-2020 6:52am PDT
Overcast
Overcast
 Wind from calm
Wind: Calm
Temperature: 70°F , 21°C
Dew Point: 61°F , 16°C
Humidity: 73%
Barometer: 29.87 inHg , 1011.5 hPa
Clouds: Overcast
Visibility: 7 miles , 11 km
Cloud details: Overcast 1200 ft
2020/09/27 13:52 KCQT 271352Z AUTO 00000KT 7SM OVC012 21/16 A2987 RMK AO2 SLP112 T02060161
 
KHHR - Hawthorne, California, USA
Distance from station: ESE 45mi, 73km
Updated: Sun, 27-Sep-2020 6:53am PDT
Smoke, Overcast
Smoke, Overcast
 Wind from calm
Wind: Calm
Temperature: 66°F , 19°C
Dew Point: 61°F , 16°C
Humidity: 83%
Barometer: 29.88 inHg , 1011.9 hPa
Summary: Smoke
Clouds: Overcast
Visibility: 10 miles , 16 km
Cloud details: Overcast 1400 ft
2020/09/27 13:53 KHHR 271353Z 00000KT 10SM FU OVC014 19/16 A2988 RMK AO2 SLP116 T01940161
KSBA - Santa Barbara, California, USA
Distance from station: WNW 49mi, 79km
Updated: Mon, 14-Sep-2020 11:18pm PDT
NOT Current
Mist, Clear
Mist, Clear
 Wind from N
Wind: N 3 mph , 6 km/h
Temperature: 61°F , 16°C
Dew Point: 55°F , 13°C
Humidity: 83%
Barometer: 29.99 inHg , 1015.6 hPa
Summary: Mist
Clouds: Clear
Visibility: 3 miles , 5 km
2020/09/15 06:18 KSBA 150618Z AUTO 01003KT 3SM BR CLR 16/13 A2999 RMK AO2 T01560133